Flight Track Log - Related Links

Times and Time Zones

All times are in EDT time to prevent confusion due to time zone crossing. See the JBU892 flight status page for this flight to view local times or setup timezone preferences in your user account.

Time Position Orientation Groundspeed Altitude Reporting Facility
EDT Latitude Longitude Course Direction KTS MPH feet Rate Location/Type
Wed 04:43:00 AM 19.0428 -69.6832 359° North  Level FlightAware Approximate
Wed 04:44:00 AM 19.1461 -69.6907 356° North  Level FlightAware Approximate
Wed 04:45:00 AM 19.2624 -69.6997 356° North  Level FlightAware Approximate
Wed 04:46:00 AM 19.3785 -69.7102 355° North  Level FlightAware Approximate
Wed 04:46:08 AM 18.9878 -69.8797 327° Northwest 452 520 15,400  Level Miami Center
Wed 04:47:00 AM 19.4877 -69.7423 327° Northwest  Level FlightAware Approximate
Wed 04:47:06 AM 19.0850 -69.9144 341° North 419 482 17,400  Level Miami Center
Wed 04:48:00 AM 19.5858 -69.8091 327° Northwest  Level FlightAware Approximate
Wed 04:48:06 AM 19.1886 -69.9511 342° North 396 456 19,300  Level Miami Center
Wed 04:49:00 AM 19.6839 -69.8760 327° Northwest  Level FlightAware Approximate
Wed 04:49:06 AM 19.2942 -69.9853 343° North 396 456 20,800  Level Miami Center
Wed 04:50:00 AM 19.7820 -69.9430 327° Northwest  Level FlightAware Approximate
Wed 04:50:06 AM 19.4058 -70.0194 344° North 396 456 22,300  Level Miami Center
Wed 04:51:00 AM 19.8800 -70.0101 327° Northwest  Level FlightAware Approximate
Wed 04:51:06 AM 19.5153 -70.0469 347° North 402 463 23,600  Level Miami Center
Wed 04:52:06 AM 19.6292 -70.0328 North 408 470 24,900 1,150 Climbing Miami Center
Wed 04:53:06 AM 19.7531 -70.0069 11° North 420 483 25,900 1,000 Climbing Miami Center
Wed 04:54:06 AM 19.8731 -69.9900 North 433 498 26,900 1,000 Climbing Miami Center
Wed 04:55:06 AM 19.9989 -69.9664 10° North 444 511 27,900 1,041 Climbing Miami Center
Wed 04:56:07 AM 20.1253 -69.9469 North 450 518 29,000 1,100 Climbing Miami Center
Wed 04:57:06 AM 20.2514 -69.9250 North 455 524 30,100 1,109 Climbing Miami Center
Wed 04:58:06 AM 20.3772 -69.9033 North 461 531 31,200 1,050 Climbing Miami Center
Wed 04:59:06 AM 20.5033 -69.8792 10° North 461 531 32,200 1,041 Climbing Miami Center
Wed 05:00:07 AM 20.6272 -69.8575 North 461 531 33,300 900 Climbing Miami Center
Wed 05:01:06 AM 20.7536 -69.8378 North 461 531 34,000 353 Climbing Miami Center
Wed 05:02:06 AM 20.8733 -69.8161 10° North 456 525 34,000  Level Miami Center
Wed 05:03:08 AM 20.9975 -69.7942 North 451 519 34,000  Level Miami Center
Wed 05:04:06 AM 21.1194 -69.7722 10° North 445 512 34,000 252 Level Miami Center
Wed 05:05:07 AM 21.2411 -69.7503 10° North 445 512 34,500 645 Climbing Miami Center
Wed 05:06:07 AM 21.3611 -69.7306 North 445 512 35,300 756 Climbing Miami Center
Wed 05:07:06 AM 21.4789 -69.7067 11° North 437 503 36,000 347 Climbing Miami Center
Wed 05:08:08 AM 21.6031 -69.6889 North 437 503 36,000  Level Miami Center
Wed 05:09:06 AM 21.7250 -69.6667 10° North 437 503 36,000  Level Miami Center
Wed 05:10:09 AM 21.8408 -69.6469 North 437 503 36,000  Level Miami Center
Wed 05:11:08 AM 21.9606 -69.6247 10° North 430 495 36,000  Level Miami Center
Wed 05:12:08 AM 22.0806 -69.6050 North 430 495 36,000  Level Miami Center
Wed 05:13:08 AM 22.2028 -69.5847 North 430 495 36,000  Level Miami Center
Wed 05:14:06 AM 22.3206 -69.5647 North 430 495 36,000  Level Miami Center
Wed 05:15:06 AM 22.4406 -69.5447 North 430 495 36,000  Level Miami Center
Wed 05:16:06 AM 22.5583 -69.5222 10° North 430 495 36,000  Level Miami Center
Wed 05:17:07 AM 22.6761 -69.5044 North 425 489 36,000  Level Miami Center
Wed 05:18:07 AM 22.7919 -69.4822 10° North 425 489 36,000  Level Miami Center
Wed 05:19:06 AM 22.9119 -69.4617 North 425 489 36,000  Level Miami Center
Wed 05:20:06 AM 23.0253 -69.4372 11° North 425 489 36,000  Level Miami Center
Wed 05:21:07 AM 23.1475 -69.4211 North 425 489 36,000  Level Miami Center
Wed 05:22:08 AM 23.2631 -69.3964 11° North 425 489 36,000  Level Miami Center
Wed 05:23:06 AM 23.3831 -69.3781 North 427 491 36,000  Level Miami Center
Wed 05:24:07 AM 23.4989 -69.3556 10° North 427 491 36,000  Level Miami Center
Wed 05:25:07 AM 23.6186 -69.3325 10° North 432 497 36,000  Level Miami Center
Wed 05:26:08 AM 23.7386 -69.3164 North 425 489 36,000  Level Miami Center
Wed 05:27:08 AM 23.8611 -69.3022 North 425 489 36,000  Level Miami Center
Wed 05:28:07 AM 23.9786 -69.2747 12° North 425 489 36,000  Level Miami Center
Wed 05:29:08 AM 24.0961 -69.2517 10° North 425 489 36,000  Level Miami Center
Wed 05:30:06 AM 24.2161 -69.2308 North 425 489 36,000  Level Miami Center
Wed 05:31:06 AM 24.3339 -69.2075 10° North 425 489 36,000  Level Miami Center
Wed 05:32:06 AM 24.4539 -69.1889 North 425 489 36,000  Level Miami Center
Wed 05:33:06 AM 24.5717 -69.1678 North 430 495 36,000  Level Miami Center
Wed 05:34:08 AM 24.6872 -69.1447 10° North 425 489 36,000  Level Miami Center
Wed 05:35:07 AM 24.8072 -69.1281 North 425 489 36,000  Level Miami Center
Wed 05:36:06 AM 24.9247 -69.1022 11° North 425 489 36,000  Level Miami Center
Wed 05:37:08 AM 25.0417 -69.1017 360° North 425 489 36,000  Level Miami Center
Wed 05:37:52 AM 25.0000 -69.1000 349° North 419 482 36,000  Level New York Oceanic (ODAPS)
Wed 05:45:00 AM 26.0573 -69.3195 349° North 419 482 36,000  Level FlightAware Transoceanic
Wed 05:46:00 AM 26.1747 -69.3441 349° North 419 482 36,000  Level FlightAware Transoceanic
Wed 05:47:00 AM 26.2922 -69.3688 349° North 419 482 36,000  Level FlightAware Transoceanic
Wed 05:48:00 AM 26.4096 -69.3935 349° North 419 482 36,000  Level FlightAware Transoceanic
Wed 05:49:00 AM 26.5271 -69.4183 349° North 419 482 36,000  Level FlightAware Transoceanic
Wed 05:50:00 AM 26.6445 -69.4431 349° North 419 482 36,000  Level FlightAware Transoceanic
Wed 05:51:00 AM 26.7619 -69.4680 349° North 419 482 36,000  Level FlightAware Transoceanic
Wed 05:52:00 AM 26.8794 -69.4929 349° North 419 482 36,000  Level FlightAware Transoceanic
Wed 05:52:22 AM 26.7167 -69.4500 349° North 432 497 36,000  Level New York Oceanic (ODAPS)
Wed 05:53:00 AM 26.9968 -69.5179 349° North 419 482 36,000  Level FlightAware Transoceanic
Wed 05:54:00 AM 27.1142 -69.5429 349° North 419 482 36,000  Level FlightAware Transoceanic
Wed 05:55:00 AM 27.2316 -69.5680 349° North 419 482 36,000  Level FlightAware Transoceanic
Wed 05:56:00 AM 27.3490 -69.5931 349° North 419 482 36,000  Level FlightAware Transoceanic
Wed 05:57:00 AM 27.4664 -69.6183 349° North 419 482 36,000  Level FlightAware Transoceanic
Wed 05:58:00 AM 27.5488 -69.6295 349° North 432 497 36,000  Level FlightAware Transoceanic
Wed 05:59:00 AM 27.6677 -69.6554 349° North 432 497 36,000  Level FlightAware Transoceanic
Wed 06:00:00 AM 27.7865 -69.6813 349° North 432 497 36,000  Level FlightAware Transoceanic
Wed 06:01:00 AM 27.9054 -69.7073 349° North 432 497 36,000  Level FlightAware Transoceanic
Wed 06:02:00 AM 28.0242 -69.7333 349° North 432 497 36,000  Level FlightAware Transoceanic
Wed 06:03:00 AM 28.1430 -69.7594 349° North 432 497 36,000  Level FlightAware Transoceanic
Wed 06:04:00 AM 28.2619 -69.7856 349° North 432 497 36,000  Level FlightAware Transoceanic
Wed 06:05:00 AM 28.3807 -69.8118 349° North 432 497 36,000  Level FlightAware Transoceanic
Wed 06:06:00 AM 28.4995 -69.8380 349° North 432 497 36,000  Level FlightAware Transoceanic
Wed 06:07:00 AM 28.6183 -69.8644 349° North 432 497 36,000  Level FlightAware Transoceanic
Wed 06:08:00 AM 28.7372 -69.8907 349° North 432 497 36,000  Level FlightAware Transoceanic
Wed 06:09:00 AM 28.8560 -69.9172 349° North 432 497 36,000  Level FlightAware Transoceanic
Wed 06:10:00 AM 28.9748 -69.9437 349° North 432 497 36,000  Level FlightAware Transoceanic
Wed 06:11:00 AM 29.0936 -69.9703 349° North 432 497 36,000  Level FlightAware Transoceanic
Wed 06:12:00 AM 29.2124 -69.9969 349° North 432 497 36,000  Level FlightAware Transoceanic
Wed 06:13:00 AM 29.3312 -70.0236 349° North 432 497 36,000  Level FlightAware Transoceanic
Wed 06:14:00 AM 29.4499 -70.0503 349° North 432 497 36,000  Level FlightAware Transoceanic
Wed 06:15:00 AM 29.5687 -70.0772 349° North 432 497 36,000  Level FlightAware Transoceanic
Wed 06:16:00 AM 29.6875 -70.1040 349° North 432 497 36,000  Level FlightAware Transoceanic
Wed 06:17:00 AM 29.8062 -70.1310 349° North 432 497 36,000  Level FlightAware Transoceanic
Wed 06:18:00 AM 29.9250 -70.1580 349° North 432 497 36,000  Level FlightAware Transoceanic
Wed 06:19:00 AM 30.0438 -70.1851 349° North 432 497 36,000  Level FlightAware Transoceanic
Wed 06:20:00 AM 30.1625 -70.2122 349° North 432 497 36,000  Level FlightAware Transoceanic
Wed 06:21:00 AM 30.2813 -70.2394 349° North 432 497 36,000  Level FlightAware Transoceanic
Wed 06:22:00 AM 30.4000 -70.2667 349° North 432 497 36,000  Level FlightAware Transoceanic
Wed 06:23:00 AM 30.5212 -70.2943 349° North 432 497 36,000  Level FlightAware Transoceanic
Wed 06:24:00 AM 30.6425 -70.3220 349° North 432 497 36,000  Level FlightAware Transoceanic
Wed 06:25:00 AM 30.7637 -70.3497 349° North 432 497 36,000  Level FlightAware Transoceanic
Wed 06:25:40 AM 30.4000 -70.2667 349° North 444 511 36,000  Level New York Oceanic (ODAPS)
Wed 06:26:00 AM 30.8849 -70.3775 349° North 432 497 36,000  Level FlightAware Transoceanic
Wed 06:27:00 AM 31.0061 -70.4054 349° North 432 497 36,000  Level FlightAware Transoceanic
Wed 06:28:00 AM 31.1273 -70.4333 349° North 432 497 36,000  Level FlightAware Transoceanic
Wed 06:29:00 AM 31.2486 -70.4614 349° North 432 497 36,000  Level FlightAware Transoceanic
Wed 06:30:00 AM 31.3698 -70.4895 349° North 432 497 36,000  Level FlightAware Transoceanic
Wed 06:31:00 AM 31.4909 -70.5176 349° North 432 497 36,000  Level FlightAware Transoceanic
Wed 06:32:00 AM 31.6121 -70.5459 349° North 444 511 36,000  Level FlightAware Transoceanic
Wed 06:33:00 AM 31.7333 -70.5742 349° North 444 511 36,000  Level FlightAware Transoceanic
Wed 06:34:00 AM 31.8545 -70.6026 349° North 444 511 36,000  Level FlightAware Transoceanic
Wed 06:35:00 AM 31.9757 -70.6311 349° North 444 511 36,000  Level FlightAware Transoceanic
Wed 06:36:00 AM 32.0968 -70.6596 349° North 444 511 36,000  Level FlightAware Transoceanic
Wed 06:37:00 AM 32.2180 -70.6882 349° North 444 511 36,000  Level FlightAware Transoceanic
Wed 06:38:00 AM 32.3391 -70.7169 349° North 444 511 36,000  Level FlightAware Transoceanic
Wed 06:39:00 AM 32.4603 -70.7457 349° North 444 511 36,000  Level FlightAware Transoceanic
Wed 06:40:00 AM 32.5814 -70.7746 349° North 444 511 36,000  Level FlightAware Transoceanic
Wed 06:41:00 AM 32.7025 -70.8035 349° North 444 511 36,000  Level FlightAware Transoceanic
Wed 06:42:00 AM 32.8237 -70.8325 349° North 444 511 36,000  Level FlightAware Transoceanic
Wed 06:43:00 AM 32.9448 -70.8616 349° North 444 511 36,000  Level FlightAware Transoceanic
Wed 06:44:00 AM 33.0659 -70.8907 349° North 444 511 36,000  Level FlightAware Transoceanic
Wed 06:45:00 AM 33.1870 -70.9200 349° North 444 511 36,000  Level FlightAware Transoceanic
Wed 06:46:00 AM 33.3081 -70.9493 349° North 444 511 36,000  Level FlightAware Transoceanic
Wed 06:47:00 AM 33.4292 -70.9787 349° North 444 511 36,000  Level FlightAware Transoceanic
Wed 06:48:00 AM 33.5502 -71.0082 349° North 444 511 36,000  Level FlightAware Transoceanic
Wed 06:49:00 AM 33.6713 -71.0378 348° North 444 511 36,000  Level FlightAware Transoceanic
Wed 06:50:00 AM 33.7924 -71.0674 348° North 444 511 36,000  Level FlightAware Transoceanic
Wed 06:51:00 AM 33.9134 -71.0972 348° North 444 511 36,000  Level FlightAware Transoceanic
Wed 06:52:00 AM 34.0345 -71.1270 348° North 444 511 36,000  Level FlightAware Transoceanic
Wed 06:53:00 AM 34.1555 -71.1569 348° North 444 511 36,000  Level FlightAware Transoceanic
Wed 06:54:00 AM 34.2766 -71.1869 348° North 444 511 36,000  Level FlightAware Transoceanic
Wed 06:55:00 AM 34.3976 -71.2170 348° North 444 511 36,000  Level FlightAware Transoceanic
Wed 06:56:00 AM 34.5186 -71.2472 348° North 444 511 36,000  Level FlightAware Transoceanic
Wed 06:57:00 AM 34.6396 -71.2774 348° North 444 511 36,000  Level FlightAware Transoceanic
Wed 06:58:00 AM 34.7607 -71.3078 348° North 444 511 36,000  Level FlightAware Transoceanic
Wed 06:59:00 AM 34.8817 -71.3382 348° North 444 511 36,000  Level FlightAware Transoceanic
Wed 07:00:00 AM 35.0027 -71.3687 348° North 444 511 36,000  Level FlightAware Transoceanic
Wed 07:01:00 AM 35.1236 -71.3993 348° North 444 511 36,000  Level FlightAware Transoceanic
Wed 07:02:00 AM 35.2446 -71.4301 348° North 444 511 36,000  Level FlightAware Transoceanic
Wed 07:03:00 AM 35.3656 -71.4608 348° North 444 511 36,000  Level FlightAware Transoceanic
Wed 07:04:00 AM 35.4865 -71.4917 348° North 444 511 36,000  Level FlightAware Transoceanic
Wed 07:05:00 AM 35.6075 -71.5227 348° North 444 511 36,000  Level FlightAware Transoceanic
Wed 07:06:00 AM 35.7285 -71.5538 348° North 444 511 36,000  Level FlightAware Transoceanic
Wed 07:07:00 AM 35.8494 -71.5850 348° North 444 511 36,000  Level FlightAware Transoceanic
Wed 07:08:00 AM 35.9703 -71.6162 348° North 444 511 36,000  Level FlightAware Transoceanic
Wed 07:09:00 AM 36.0912 -71.6476 348° North 444 511 36,000  Level FlightAware Transoceanic
Wed 07:10:00 AM 36.2122 -71.6791 348° North 444 511 36,000  Level FlightAware Transoceanic
Wed 07:11:00 AM 36.3331 -71.7106 348° North 444 511 36,000 -80 Level FlightAware Transoceanic
Wed 07:11:15 AM 36.2819 -71.6497 348° North 449 517 35,900  Descending New York Center
Wed 07:12:00 AM 36.4540 -71.7423 348° North 444 511 36,000 102 Climbing FlightAware Transoceanic
Wed 07:12:14 AM 36.4069 -71.6797 349° North 448 516 36,000  Level New York Center
Wed 07:13:00 AM 36.5748 -71.7740 348° North 444 511 36,000  Level FlightAware Transoceanic
Wed 07:13:15 AM 36.5236 -71.7122 347° North 448 516 36,000  Level New York Center
Wed 07:14:00 AM 36.6957 -71.8059 348° North 444 511 36,000  Level FlightAware Transoceanic
Wed 07:14:15 AM 36.6483 -71.7447 348° North 448 516 36,000  Level New York Center
Wed 07:15:00 AM 36.8166 -71.8378 348° North 444 511 36,000  Level FlightAware Transoceanic
Wed 07:15:13 AM 36.7711 -71.7881 344° North 439 505 36,000  Level New York Center
Wed 07:16:00 AM 36.9375 -71.8699 348° North 444 511 36,000  Level FlightAware Transoceanic
Wed 07:16:13 AM 36.8811 -71.8517 335° Northwest 439 505 36,000 -82 Level New York Center
Wed 07:17:13 AM 36.9978 -71.8822 348° North 444 511 35,900 -50 Descending New York Center
Wed 07:18:14 AM 37.1311 -71.8842 359° North 444 511 35,900  Level New York Center
Wed 07:19:12 AM 37.2606 -71.8889 358° North 450 518 35,900  Level New York Center
Wed 07:20:14 AM 37.3836 -71.8933 358° North 450 518 35,900 49 Level New York Center
Wed 07:21:15 AM 37.5147 -71.8981 358° North 450 518 36,000 50 Climbing New York Center
Wed 07:22:15 AM 37.6150 -71.8994 359° North 456 525 36,000  Level New York Center
Wed 07:23:13 AM 37.7569 -71.8939 North 441 507 36,000 -50 Level New York Center
Wed 07:24:14 AM 37.8842 -71.8958 359° North 441 507 35,900  Descending New York Center
Wed 07:25:13 AM 38.0133 -71.9058 357° North 451 519 36,000 50 Climbing New York Center
Wed 07:26:13 AM 38.1383 -71.9158 356° North 451 519 36,000  Level New York Center
Wed 07:27:13 AM 38.2675 -71.9178 359° North 457 526 36,000 -50 Level New York Center
Wed 07:28:14 AM 38.3947 -71.9225 358° North 457 526 35,900 -50 Descending New York Center
Wed 07:29:12 AM 38.5200 -71.9219 360° North 457 526 35,900  Level New York Center
Wed 07:30:13 AM 38.6450 -71.9242 359° North 457 526 35,900 49 Level New York Center
Wed 07:31:14 AM 38.7700 -71.9289 358° North 457 526 36,000 50 Climbing New York Center
Wed 07:32:12 AM 38.8994 -71.9283 360° North 457 526 36,000  Level New York Center
Wed 07:33:13 AM 39.0244 -71.9303 359° North 457 526 36,000  Level New York Center
Wed 07:34:13 AM 39.1517 -71.9378 357° North 457 526 36,000  Level New York Center
Wed 07:36:06 AM 39.3758 -71.9436 359° North 453 521 36,000 -35 Level Boston Center
Wed 07:37:06 AM 39.5050 -71.9481 358° North 453 521 35,900 -550 Descending Boston Center
Wed 07:38:06 AM 39.6342 -71.9472 360° North 460 529 34,900 -1,000 Descending Boston Center
Wed 07:39:06 AM 39.7656 -71.9517 359° North 460 529 33,900 -950 Descending Boston Center
Wed 07:40:06 AM 39.9008 -71.9533 359° North 467 537 33,000 -950 Descending Boston Center
Wed 07:41:06 AM 40.0364 -71.9578 359° North 478 550 32,000 -1,000 Descending Boston Center
Wed 07:42:06 AM 40.1697 -71.9622 359° North 478 550 31,000 -1,000 Descending Boston Center
Wed 07:43:06 AM 40.3008 -71.9586 North 471 542 30,000 -1,000 Descending Boston Center
Wed 07:44:06 AM 40.4361 -71.9303 North 477 549 29,000 -1,250 Descending Boston Center
Wed 07:45:06 AM 40.5672 -71.9047 North 482 555 27,500 -1,650 Descending Boston Center
Wed 07:46:06 AM 40.6942 -71.8789 North 476 548 25,700 -2,500 Descending Boston Center
Wed 07:47:06 AM 40.8358 -71.8614 North 475 547 22,500 -2,500 Descending Boston Center
Wed 07:48:06 AM 40.9544 -71.8356 North 450 518 20,700 -1,950 Descending Boston Center
Wed 07:49:06 AM 41.0647 -71.8069 11° North 414 476 18,600 -1,800 Descending Boston Center
Wed 07:50:06 AM 41.1711 -71.7839 North 389 448 17,100 -800 Descending Boston Center
Wed 07:51:06 AM 41.2667 -71.7664 North 384 442 17,000 -250 Descending Boston Center
Wed 07:52:06 AM 41.3811 -71.7403 10° North 384 442 16,600 -1,350 Descending Boston Center
Wed 07:53:06 AM 41.4747 -71.7086 14° North 384 442 14,300 -1,800 Descending Boston Center
Wed 07:54:06 AM 41.5636 -71.6106 40° Northeast 373 429 13,000 -1,100 Descending Boston Center
Wed 07:55:06 AM 41.6297 -71.5347 41° Northeast 361 415 12,100 -900 Descending Boston Center
Wed 07:56:06 AM 41.7061 -71.4503 40° Northeast 330 380 11,200 -550 Descending Boston Center
Wed 07:57:06 AM 41.7639 -71.3686 46° Northeast 295 339 11,000 -100 Descending Boston Center
Wed 07:58:06 AM 41.8192 -71.2814 50° Northeast 295 339 11,000 -300 Level Boston Center
Wed 07:59:06 AM 41.8917 -71.2353 25° Northeast 282 325 10,400 -1,350 Descending Boston Center
Wed 08:00:06 AM 41.9683 -71.1975 20° North 282 325 8,300 -1,950 Descending Boston Center
Wed 08:01:06 AM 42.0431 -71.1653 18° North 288 331 6,500 -1,511 Descending Boston Center
Wed 08:02:17 AM 42.1167 -71.1167 26° Northeast 237 273 5,000 -1,282 Descending KA90
Wed 08:03:17 AM 42.1667 -71.1000 14° North 216 249 3,700 -1,100 Descending KA90
Wed 08:04:17 AM 42.2167 -71.0667 26° Northeast 186 214 2,800 -950 Descending KA90
Wed 08:05:17 AM 42.2667 -71.0500 14° North 167 192 1,800 -857 Descending KA90
Wed 08:06:23 AM 42.3000 -71.0333 20° North 131 151 1,000 -667 Descending KA90
Wed 08:07:23 AM 42.3333 -71.0167 20° North 129 148 400 3,681 Descending KA90
Wed 08:09:06 AM 42.3933 -70.9950 15° North 128 147 11,000 6,175 Climbing Boston Center

Login

Don't have an account? Register now (free) for customized features, flight alerts, and more!